createdAt,value
2022-10-22T08:38:04.014Z,1004.11
2022-10-22T08:39:03.824Z,1004.13
2022-10-22T08:40:03.829Z,1004.16
2022-10-22T08:41:03.689Z,1004.09
2022-10-22T08:42:03.838Z,1004.12
2022-10-22T08:43:03.854Z,1004.13
2022-10-22T08:44:03.653Z,1004.15
2022-10-22T08:45:03.653Z,1004.18
2022-10-22T08:46:03.648Z,1004.17
2022-10-22T08:47:03.666Z,1004.19
2022-10-22T08:48:03.662Z,1004.22
2022-10-22T08:49:03.722Z,1004.17
2022-10-22T08:50:03.686Z,1004.18
2022-10-22T08:51:03.690Z,1004.22
2022-10-22T08:52:03.697Z,1004.23
2022-10-22T08:53:03.708Z,1004.28
2022-10-22T08:54:03.716Z,1004.25
2022-10-22T08:55:03.541Z,1004.26
2022-10-22T08:56:03.520Z,1004.23
2022-10-22T08:57:03.536Z,1004.27
2022-10-22T08:58:03.550Z,1004.25
2022-10-22T08:59:03.515Z,1004.29
2022-10-22T09:00:03.550Z,1004.22
2022-10-22T09:01:03.549Z,1004.23
2022-10-22T09:02:03.579Z,1004.28
2022-10-22T09:03:03.569Z,1004.32
2022-10-22T09:04:03.554Z,1004.31
2022-10-22T09:05:03.576Z,1004.30
2022-10-22T09:06:03.588Z,1004.27
2022-10-22T09:07:03.418Z,1004.26
2022-10-22T09:08:03.414Z,1004.26
2022-10-22T09:09:03.861Z,1004.28
2022-10-22T09:10:03.397Z,1004.22
2022-10-22T09:11:03.407Z,1004.32
2022-10-22T09:12:03.409Z,1004.27
2022-10-22T09:13:03.420Z,1004.31
2022-10-22T09:14:03.554Z,1004.31
2022-10-22T09:15:03.435Z,1004.27
2022-10-22T09:16:03.433Z,1004.27
2022-10-22T09:17:03.440Z,1004.18
2022-10-22T09:18:03.470Z,1004.24
2022-10-22T09:19:03.271Z,1004.18
2022-10-22T09:20:03.367Z,1004.20
2022-10-22T09:21:03.475Z,1004.29
2022-10-22T09:22:03.718Z,1004.25
2022-10-22T09:23:03.279Z,1004.18
2022-10-22T09:24:03.303Z,1004.20
2022-10-22T09:25:03.325Z,1004.20
2022-10-22T09:26:03.304Z,1004.26
2022-10-22T09:27:03.290Z,1004.28
2022-10-22T09:28:03.313Z,1004.20
2022-10-22T09:29:03.324Z,1004.24
2022-10-22T09:30:03.546Z,1004.33
2022-10-22T09:31:03.645Z,1004.33
2022-10-22T09:32:03.335Z,1004.23
2022-10-22T09:33:04.008Z,1004.26
2022-10-22T09:34:03.360Z,1004.19
2022-10-22T09:35:03.563Z,1004.25
2022-10-22T09:36:03.156Z,1004.30
2022-10-22T09:37:03.172Z,1004.28
2022-10-22T09:38:03.393Z,1004.34
2022-10-22T09:39:03.426Z,1004.36
2022-10-22T09:40:03.584Z,1004.35
2022-10-22T09:41:03.220Z,1004.30
2022-10-22T09:42:03.208Z,1004.32
2022-10-22T09:43:03.022Z,1004.39
2022-10-22T09:44:03.025Z,1004.38
2022-10-22T09:45:03.025Z,1004.47
2022-10-22T09:46:03.017Z,1004.41
2022-10-22T09:47:03.037Z,1004.44
2022-10-22T09:48:03.291Z,1004.45
2022-10-22T09:49:03.241Z,1004.44
2022-10-22T09:50:03.045Z,1004.46
2022-10-22T09:51:03.102Z,1004.54
2022-10-22T09:52:03.288Z,1004.51
2022-10-22T09:53:03.280Z,1004.48
2022-10-22T09:54:03.068Z,1004.54
2022-10-22T09:55:02.907Z,1004.51
2022-10-22T09:56:02.882Z,1004.61
2022-10-22T09:57:02.999Z,1004.62
2022-10-22T09:58:02.905Z,1004.65
2022-10-22T09:59:02.896Z,1004.62
2022-10-22T10:00:03.108Z,1004.70
2022-10-22T10:01:02.982Z,1004.71
2022-10-22T10:02:13.633Z,1004.68
2022-10-22T10:03:03.983Z,1004.63
2022-10-22T10:04:06.953Z,1004.62
2022-10-22T10:05:03.800Z,1004.60
2022-10-22T10:06:05.839Z,1004.59
2022-10-22T10:07:02.848Z,1004.59
2022-10-22T10:08:02.765Z,1004.62
2022-10-22T10:09:02.832Z,1004.62
2022-10-22T10:10:02.774Z,1004.64
2022-10-22T10:11:02.969Z,1004.62
2022-10-22T10:12:02.796Z,1004.60
2022-10-22T10:13:02.812Z,1004.71
2022-10-22T10:14:02.837Z,1004.69
2022-10-22T10:15:02.799Z,1004.65
2022-10-22T10:16:02.810Z,1004.61
2022-10-22T10:17:03.022Z,1004.61
2022-10-22T10:18:02.830Z,1004.66
2022-10-22T10:19:03.050Z,1004.60
2022-10-22T10:20:04.057Z,1004.62
2022-10-22T10:21:02.703Z,1004.60
2022-10-22T10:22:02.851Z,1004.59
2022-10-22T10:23:02.653Z,1004.65
2022-10-22T10:24:03.066Z,1004.62
2022-10-22T10:25:02.651Z,1004.61
2022-10-22T10:26:02.684Z,1004.55
2022-10-22T10:27:02.883Z,1004.63
2022-10-22T10:28:02.678Z,1004.69
2022-10-22T10:29:02.695Z,1004.82
2022-10-22T10:30:02.524Z,1004.79
2022-10-22T10:31:02.708Z,1004.64
2022-10-22T10:32:02.501Z,1004.63
2022-10-22T10:33:02.513Z,1004.61
2022-10-22T10:34:02.733Z,1004.71
2022-10-22T10:35:02.722Z,1004.75
2022-10-22T10:36:02.925Z,1004.66
2022-10-22T10:37:02.542Z,1004.71
2022-10-22T10:38:02.540Z,1004.75
2022-10-22T10:39:02.546Z,1004.74
2022-10-22T10:40:02.757Z,1004.69
2022-10-22T10:41:02.764Z,1004.67
2022-10-22T10:42:02.775Z,1004.72
2022-10-22T10:43:02.401Z,1004.92
2022-10-22T10:44:02.589Z,1004.73
2022-10-22T10:45:02.377Z,1004.76
2022-10-22T10:46:02.388Z,1004.75
2022-10-22T10:47:02.388Z,1004.82
2022-10-22T10:48:02.393Z,1004.70
2022-10-22T10:49:02.321Z,1004.73
2022-10-22T10:50:02.316Z,1004.90
2022-10-22T10:51:02.333Z,1004.91
2022-10-22T10:52:02.585Z,1004.73
2022-10-22T10:53:02.390Z,1004.80
2022-10-22T10:54:02.644Z,1004.84
2022-10-22T10:55:02.851Z,1004.86
2022-10-22T10:56:02.264Z,1004.90
2022-10-22T10:57:02.244Z,1004.82
2022-10-22T10:58:02.251Z,1004.69
2022-10-22T10:59:02.338Z,1004.74
2022-10-22T11:00:02.395Z,1004.71
2022-10-22T11:01:02.577Z,1004.80
2022-10-22T11:02:02.189Z,1004.79
2022-10-22T11:03:02.307Z,1004.72
2022-10-22T11:04:02.358Z,1004.78
2022-10-22T11:05:02.264Z,1004.75
2022-10-22T11:06:02.209Z,1004.80
2022-10-22T11:07:11.171Z,1004.83
2022-10-22T11:08:03.124Z,1004.91
2022-10-22T11:09:02.165Z,1004.84
2022-10-22T11:10:02.159Z,1004.80
2022-10-22T11:11:02.211Z,1004.81
2022-10-22T11:12:02.097Z,1004.91
2022-10-22T11:13:02.329Z,1004.82
2022-10-22T11:14:02.108Z,1004.71
2022-10-22T11:15:02.233Z,1004.75
2022-10-22T11:16:02.333Z,1004.73
2022-10-22T11:17:02.383Z,1004.81
2022-10-22T11:18:02.028Z,1004.79
2022-10-22T11:19:01.995Z,1004.79
2022-10-22T11:20:02.028Z,1004.80
2022-10-22T11:21:02.002Z,1004.81
2022-10-22T11:22:02.006Z,1004.83
2022-10-22T11:23:18.984Z,1004.80
2022-10-22T11:24:02.948Z,1004.93
2022-10-22T11:25:02.186Z,1004.91
2022-10-22T11:26:01.917Z,1004.84
2022-10-22T11:27:01.975Z,1004.87
2022-10-22T11:28:07.845Z,1004.85
2022-10-22T11:29:02.975Z,1004.98
2022-10-22T11:30:01.979Z,1004.83
2022-10-22T11:31:01.874Z,1004.84
2022-10-22T11:32:01.862Z,1004.80
2022-10-22T11:33:01.911Z,1004.93
2022-10-22T11:34:15.269Z,1004.72
2022-10-22T11:35:03.189Z,1004.93
2022-10-22T11:36:01.848Z,1004.90
2022-10-22T11:37:01.876Z,1004.89
2022-10-22T11:38:02.446Z,1004.83
2022-10-22T11:39:01.805Z,1004.87
2022-10-22T11:40:01.787Z,1004.88
2022-10-22T11:41:01.819Z,1004.94
2022-10-22T11:42:01.737Z,1004.97
2022-10-22T11:43:01.827Z,1004.72
2022-10-22T11:44:01.913Z,1004.82
2022-10-22T11:45:01.958Z,1004.85
2022-10-22T11:46:01.739Z,1004.78
2022-10-22T11:47:01.769Z,1004.79
2022-10-22T11:48:01.767Z,1004.81
2022-10-22T11:49:01.667Z,1004.90
2022-10-22T11:50:01.898Z,1004.78
2022-10-22T11:51:01.780Z,1004.87
2022-10-22T11:52:04.347Z,1004.92
2022-10-22T11:53:02.244Z,1004.87
2022-10-22T11:54:01.808Z,1004.90
2022-10-22T11:55:01.608Z,1004.86
2022-10-22T11:56:01.610Z,1004.95
2022-10-22T11:57:01.617Z,1004.89
2022-10-22T11:58:02.232Z,1005.00
2022-10-22T11:59:01.627Z,1004.94
2022-10-22T12:00:02.050Z,1004.82
2022-10-22T12:01:01.677Z,1004.77
2022-10-22T12:02:02.474Z,1004.89
2022-10-22T12:03:01.668Z,1004.87
2022-10-22T12:04:01.881Z,1004.71
2022-10-22T12:05:01.951Z,1004.88
2022-10-22T12:06:01.607Z,1004.86
2022-10-22T12:07:01.582Z,1004.85
2022-10-22T12:08:01.974Z,1004.77
2022-10-22T12:09:01.899Z,1004.80
2022-10-22T12:10:01.549Z,1004.83
2022-10-22T12:11:01.628Z,1004.88
2022-10-22T12:12:01.608Z,1004.86
2022-10-22T12:13:01.433Z,1004.94
2022-10-22T12:14:01.479Z,1004.91
2022-10-22T12:15:01.853Z,1004.88
2022-10-22T12:16:01.497Z,1004.95
2022-10-22T12:17:01.646Z,1004.88
2022-10-22T12:18:01.432Z,1004.81
2022-10-22T12:19:01.522Z,1004.77
2022-10-22T12:20:02.438Z,1004.71
2022-10-22T12:21:01.356Z,1004.85
2022-10-22T12:22:01.317Z,1005.00
2022-10-22T12:23:01.334Z,1004.92
2022-10-22T12:24:01.371Z,1004.87
2022-10-22T12:25:01.355Z,1004.81
2022-10-22T12:26:01.428Z,1004.88
2022-10-22T12:27:01.384Z,1004.85
2022-10-22T12:28:01.297Z,1004.80
2022-10-22T12:29:01.400Z,1005.03
2022-10-22T12:30:01.844Z,1004.94
2022-10-22T12:31:01.379Z,1004.89
2022-10-22T12:32:01.694Z,1004.86
2022-10-22T12:33:01.248Z,1005.10
2022-10-22T12:34:01.296Z,1004.88
2022-10-22T12:35:01.370Z,1004.88
2022-10-22T12:36:01.399Z,1004.97
2022-10-22T12:37:01.151Z,1004.91
2022-10-22T12:38:01.818Z,1004.93
2022-10-22T12:39:01.248Z,1004.95
2022-10-22T12:40:01.169Z,1004.89
2022-10-22T12:41:01.190Z,1004.88
2022-10-22T12:42:01.294Z,1004.91
2022-10-22T12:43:01.569Z,1005.05
2022-10-22T12:44:01.290Z,1004.94
2022-10-22T12:45:01.295Z,1005.09
2022-10-22T12:46:01.536Z,1005.07
2022-10-22T12:47:01.172Z,1005.03
2022-10-22T12:48:01.193Z,1005.12
2022-10-22T12:49:01.274Z,1005.06
2022-10-22T12:50:01.089Z,1005.08
2022-10-22T12:51:01.385Z,1005.09
2022-10-22T12:52:01.003Z,1005.05
2022-10-22T12:53:01.403Z,1005.21
2022-10-22T12:54:01.477Z,1005.14
2022-10-22T12:55:00.984Z,1005.20
2022-10-22T12:56:01.123Z,1005.12
2022-10-22T12:57:01.375Z,1005.05
2022-10-22T12:58:01.008Z,1005.21
2022-10-22T12:59:00.995Z,1005.16
2022-10-22T13:01:01.032Z,1005.06
2022-10-22T13:02:01.005Z,1005.09
2022-10-22T13:03:01.045Z,1005.06
2022-10-22T13:04:00.925Z,1005.02
2022-10-22T13:05:00.951Z,1005.09
2022-10-22T13:06:00.878Z,1004.96
2022-10-22T13:07:00.873Z,1005.00
2022-10-22T13:08:00.894Z,1005.04
2022-10-22T13:09:01.396Z,1005.14
2022-10-22T13:10:01.140Z,1005.03
2022-10-22T13:11:00.974Z,1005.05
2022-10-22T13:12:01.165Z,1005.02
2022-10-22T13:13:01.711Z,1005.04
2022-10-22T13:14:00.958Z,1005.07
2022-10-22T13:15:00.781Z,1005.05
2022-10-22T13:16:00.780Z,1005.13
2022-10-22T13:17:00.841Z,1005.07
2022-10-22T13:18:01.078Z,1005.04
2022-10-22T13:19:00.767Z,1005.08
2022-10-22T13:20:00.778Z,1005.05
2022-10-22T13:21:00.706Z,1005.01
2022-10-22T13:22:01.552Z,1005.07
2022-10-22T13:23:00.668Z,1005.15
2022-10-22T13:24:00.896Z,1005.09
2022-10-22T13:25:00.668Z,1005.08
2022-10-22T13:26:01.003Z,1005.09
2022-10-22T13:27:00.676Z,1005.10
2022-10-22T13:28:00.693Z,1005.06
2022-10-22T13:29:00.687Z,1005.06
2022-10-22T13:30:01.199Z,1005.08
2022-10-22T13:31:00.630Z,1005.06
2022-10-22T13:32:00.677Z,1005.09
2022-10-22T13:33:00.717Z,1005.06
2022-10-22T13:34:02.462Z,1005.09
2022-10-22T13:35:00.744Z,1005.12
2022-10-22T13:36:00.530Z,1005.25
2022-10-22T13:37:00.652Z,1005.18
2022-10-22T13:38:00.632Z,1005.34
2022-10-22T13:39:00.534Z,1005.19
2022-10-22T13:40:00.581Z,1005.16
2022-10-22T13:41:00.457Z,1005.22
2022-10-22T13:42:00.482Z,1005.15
2022-10-22T13:43:00.528Z,1005.27
2022-10-22T13:44:00.465Z,1005.25
2022-10-22T13:45:00.447Z,1005.17
2022-10-22T13:46:00.436Z,1005.29
2022-10-22T13:47:00.477Z,1005.23
2022-10-22T13:48:00.454Z,1005.22
2022-10-22T13:49:00.438Z,1005.07
2022-10-22T13:50:00.490Z,1005.12
2022-10-22T13:51:00.435Z,1005.17
2022-10-22T13:52:00.438Z,1005.20
2022-10-22T13:53:00.421Z,1005.13
2022-10-22T13:54:00.339Z,1005.17
2022-10-22T13:55:00.461Z,1005.17
2022-10-22T13:56:00.353Z,1005.16
2022-10-22T13:57:00.363Z,1005.16
2022-10-22T13:58:00.371Z,1005.25
2022-10-22T13:59:00.371Z,1005.26
2022-10-22T14:00:00.373Z,1005.30
2022-10-22T14:01:00.502Z,1005.24
2022-10-22T14:02:00.424Z,1005.27
2022-10-22T14:03:00.246Z,1005.43
2022-10-22T14:04:00.307Z,1005.32
2022-10-22T14:05:00.236Z,1005.35
2022-10-22T14:06:00.256Z,1005.37
2022-10-22T14:07:02.873Z,1005.42
2022-10-22T14:08:00.261Z,1005.45
2022-10-22T14:09:00.305Z,1005.40
2022-10-22T14:10:00.203Z,1005.41
2022-10-22T14:11:00.940Z,1005.47
2022-10-22T14:12:00.214Z,1005.49
2022-10-22T14:13:00.131Z,1005.47
2022-10-22T14:14:00.267Z,1005.48
2022-10-22T14:15:00.292Z,1005.47
2022-10-22T14:16:00.129Z,1005.56
2022-10-22T14:17:00.165Z,1005.64
2022-10-22T14:18:00.106Z,1005.56
2022-10-22T14:19:00.263Z,1005.62
2022-10-22T14:20:00.209Z,1005.59
2022-10-22T14:21:00.273Z,1005.67
2022-10-22T14:22:00.106Z,1005.79
2022-10-22T14:23:00.394Z,1005.72
2022-10-22T14:24:00.020Z,1005.71
2022-10-22T14:25:00.034Z,1005.72
2022-10-22T14:26:00.237Z,1005.80
2022-10-22T14:26:59.966Z,1005.70
2022-10-22T14:28:00.012Z,1005.72
2022-10-22T14:29:15.448Z,1005.86
2022-10-22T14:30:01.196Z,1005.80
2022-10-22T14:30:59.905Z,1005.81
2022-10-22T14:31:59.938Z,1005.76
2022-10-22T14:32:59.988Z,1005.77
2022-10-22T14:34:00.191Z,1005.80
2022-10-22T14:34:59.924Z,1005.80
2022-10-22T14:36:00.206Z,1005.77
2022-10-22T14:36:59.994Z,1005.70
2022-10-22T14:38:00.166Z,1005.75
2022-10-22T14:38:59.986Z,1005.74
2022-10-22T14:40:00.192Z,1005.75
2022-10-22T14:41:00.130Z,1005.78
2022-10-22T14:41:59.875Z,1005.72
2022-10-22T14:42:59.939Z,1005.81
2022-10-22T14:44:00.055Z,1005.72
2022-10-22T14:44:59.867Z,1005.74
2022-10-22T14:45:59.875Z,1005.76
2022-10-22T14:46:59.838Z,1005.81
2022-10-22T14:47:59.903Z,1005.77
2022-10-22T14:49:00.272Z,1005.70
2022-10-22T14:50:00.157Z,1005.74
2022-10-22T14:50:59.743Z,1005.72
2022-10-22T14:51:59.727Z,1005.79
2022-10-22T14:52:59.708Z,1005.70
2022-10-22T14:53:59.751Z,1005.69
2022-10-22T14:54:59.783Z,1005.67
2022-10-22T14:55:59.824Z,1005.75
2022-10-22T14:56:59.800Z,1005.74
2022-10-22T14:57:59.806Z,1005.73
2022-10-22T14:58:59.636Z,1005.70
2022-10-22T15:00:00.086Z,1005.70
2022-10-22T15:00:59.742Z,1005.69
2022-10-22T15:02:00.444Z,1005.72
2022-10-22T15:03:03.302Z,1005.78
2022-10-22T15:03:59.894Z,1005.84
2022-10-22T15:04:59.897Z,1005.90
2022-10-22T15:05:59.604Z,1005.90
2022-10-22T15:06:59.676Z,1005.90
2022-10-22T15:07:59.563Z,1005.89
2022-10-22T15:08:59.730Z,1005.90
2022-10-22T15:09:59.778Z,1005.87
2022-10-22T15:10:59.616Z,1005.89
2022-10-22T15:11:59.531Z,1005.93
2022-10-22T15:12:59.497Z,1005.89
2022-10-22T15:13:59.495Z,1005.92
2022-10-22T15:14:59.580Z,1005.92
2022-10-22T15:15:59.440Z,1005.95
2022-10-22T15:16:59.567Z,1006.00
2022-10-22T15:17:59.533Z,1005.97
2022-10-22T15:18:59.696Z,1005.96
2022-10-22T15:19:59.483Z,1005.96
2022-10-22T15:20:59.930Z,1005.99
2022-10-22T15:21:59.882Z,1006.02
2022-10-22T15:22:59.494Z,1005.96
2022-10-22T15:23:59.409Z,1005.99
2022-10-22T15:24:59.854Z,1006.03
2022-10-22T15:25:59.385Z,1006.04
2022-10-22T15:26:59.554Z,1006.02
2022-10-22T15:28:02.035Z,1006.04
2022-10-22T15:29:00.340Z,1006.01
2022-10-22T15:29:59.516Z,1006.05
2022-10-22T15:30:59.323Z,1006.02
2022-10-22T15:32:00.772Z,1006.10
2022-10-22T15:32:59.335Z,1006.10
2022-10-22T15:34:01.744Z,1006.12
2022-10-22T15:34:59.376Z,1006.11
2022-10-22T15:35:59.534Z,1006.11
2022-10-22T15:36:59.530Z,1006.09
2022-10-22T15:37:59.234Z,1006.16
2022-10-22T15:38:59.211Z,1006.14
2022-10-22T15:39:59.221Z,1006.17
2022-10-22T15:41:01.646Z,1006.16
2022-10-22T15:42:00.424Z,1006.20
2022-10-22T15:42:59.234Z,1006.18
2022-10-22T15:43:59.337Z,1006.22
2022-10-22T15:44:59.151Z,1006.19
2022-10-22T15:45:59.216Z,1006.24
2022-10-22T15:46:59.265Z,1006.18
2022-10-22T15:47:59.105Z,1006.22
2022-10-22T15:48:59.255Z,1006.20
2022-10-22T15:49:59.251Z,1006.24
2022-10-22T15:50:59.461Z,1006.19
2022-10-22T15:51:59.256Z,1006.20
2022-10-22T15:52:59.181Z,1006.19
2022-10-22T15:53:59.056Z,1006.22
2022-10-22T15:54:59.333Z,1006.20
2022-10-22T15:55:59.195Z,1006.20
2022-10-22T15:56:59.498Z,1006.23
2022-10-22T15:58:01.823Z,1006.19
2022-10-22T15:59:00.131Z,1006.19
2022-10-22T15:59:59.518Z,1006.16
2022-10-22T16:00:59.161Z,1006.17
2022-10-22T16:01:58.995Z,1006.16
2022-10-22T16:02:59.068Z,1006.15
2022-10-22T16:03:58.953Z,1006.17
2022-10-22T16:04:58.993Z,1006.21
2022-10-22T16:05:58.947Z,1006.24
2022-10-22T16:06:58.906Z,1006.20
2022-10-22T16:07:59.109Z,1006.22
2022-10-22T16:08:59.037Z,1006.22
2022-10-22T16:09:58.999Z,1006.26
2022-10-22T16:10:58.921Z,1006.24
2022-10-22T16:11:58.844Z,1006.24
2022-10-22T16:12:58.898Z,1006.27
2022-10-22T16:13:59.176Z,1006.22
2022-10-22T16:14:59.005Z,1006.22
2022-10-22T16:15:58.807Z,1006.24
2022-10-22T16:16:58.807Z,1006.25
2022-10-22T16:17:58.798Z,1006.24
2022-10-22T16:18:58.780Z,1006.28
2022-10-22T16:19:58.827Z,1006.29
2022-10-22T16:20:58.811Z,1006.26
2022-10-22T16:21:58.818Z,1006.28
2022-10-22T16:22:59.107Z,1006.26
2022-10-22T16:24:03.803Z,1006.27
2022-10-22T16:24:59.900Z,1006.25
2022-10-22T16:25:58.863Z,1006.24
2022-10-22T16:26:58.754Z,1006.29
2022-10-22T16:27:58.670Z,1006.24
2022-10-22T16:28:58.711Z,1006.24
2022-10-22T16:29:58.658Z,1006.26
2022-10-22T16:30:59.101Z,1006.27
2022-10-22T16:31:59.103Z,1006.24
2022-10-22T16:32:58.633Z,1006.25
2022-10-22T16:33:58.872Z,1006.28
2022-10-22T16:34:58.643Z,1006.32
2022-10-22T16:35:58.815Z,1006.32
2022-10-22T16:36:58.726Z,1006.34
2022-10-22T16:37:58.939Z,1006.36
2022-10-22T16:38:58.548Z,1006.34
2022-10-22T16:39:58.593Z,1006.36
2022-10-22T16:40:58.544Z,1006.37
2022-10-22T16:41:58.561Z,1006.36
2022-10-22T16:42:58.572Z,1006.39
2022-10-22T16:43:58.497Z,1006.39
2022-10-22T16:44:58.509Z,1006.39
2022-10-22T16:45:58.595Z,1006.47
2022-10-22T16:46:58.576Z,1006.45
2022-10-22T16:47:58.634Z,1006.49
2022-10-22T16:48:58.613Z,1006.51
2022-10-22T16:49:58.481Z,1006.51
2022-10-22T16:50:58.429Z,1006.55
2022-10-22T16:51:58.436Z,1006.53
2022-10-22T16:52:58.448Z,1006.55
2022-10-22T16:53:58.464Z,1006.53
2022-10-22T16:54:58.420Z,1006.56
2022-10-22T16:55:58.418Z,1006.62
2022-10-22T16:56:58.418Z,1006.62
2022-10-22T16:57:58.402Z,1006.66
2022-10-22T16:58:58.444Z,1006.63
2022-10-22T16:59:58.421Z,1006.67
2022-10-22T17:00:58.427Z,1006.63
2022-10-22T17:01:58.491Z,1006.66
2022-10-22T17:02:58.411Z,1006.65
2022-10-22T17:03:58.289Z,1006.67
2022-10-22T17:04:58.406Z,1006.68
2022-10-22T17:05:58.443Z,1006.70
2022-10-22T17:06:58.501Z,1006.75
2022-10-22T17:07:58.250Z,1006.73
2022-10-22T17:08:58.653Z,1006.76
2022-10-22T17:09:58.302Z,1006.77
2022-10-22T17:10:58.283Z,1006.77
2022-10-22T17:11:58.329Z,1006.82
2022-10-22T17:12:58.511Z,1006.81
2022-10-22T17:13:58.739Z,1006.77
2022-10-22T17:14:58.509Z,1006.77
2022-10-22T17:15:58.161Z,1006.78
2022-10-22T17:16:58.210Z,1006.81
2022-10-22T17:17:58.194Z,1006.79
2022-10-22T17:18:58.201Z,1006.81
2022-10-22T17:19:58.264Z,1006.86
2022-10-22T17:20:58.111Z,1006.86
2022-10-22T17:21:58.093Z,1006.87
2022-10-22T17:22:58.221Z,1006.85
2022-10-22T17:23:58.194Z,1006.84
2022-10-22T17:24:58.249Z,1006.90
2022-10-22T17:25:58.080Z,1006.86
2022-10-22T17:26:58.180Z,1006.86
2022-10-22T17:27:58.232Z,1006.91
2022-10-22T17:28:58.362Z,1006.87
2022-10-22T17:29:58.387Z,1006.89
2022-10-22T17:30:58.227Z,1006.91
2022-10-22T17:31:58.328Z,1006.92
2022-10-22T17:32:58.077Z,1006.89
2022-10-22T17:33:58.079Z,1006.89
2022-10-22T17:34:58.094Z,1006.89
2022-10-22T17:35:58.098Z,1006.91
2022-10-22T17:36:58.108Z,1006.93
2022-10-22T17:37:58.035Z,1006.95
2022-10-22T17:38:58.332Z,1006.94
2022-10-22T17:39:58.035Z,1006.99
2022-10-22T17:40:59.895Z,1006.98
2022-10-22T17:41:57.977Z,1006.98
2022-10-22T17:42:58.230Z,1007.02
2022-10-22T17:43:58.010Z,1007.03
2022-10-22T17:44:58.092Z,1007.00
2022-10-22T17:45:57.871Z,1006.98
2022-10-22T17:46:57.868Z,1006.99
2022-10-22T17:47:57.928Z,1007.00
2022-10-22T17:48:58.602Z,1006.99
2022-10-22T17:49:58.051Z,1007.02
2022-10-22T17:50:59.234Z,1006.98
2022-10-22T17:51:57.985Z,1007.02
2022-10-22T17:52:57.813Z,1007.01
2022-10-22T17:53:57.926Z,1007.05
2022-10-22T17:54:57.760Z,1007.04
2022-10-22T17:55:58.774Z,1007.05
2022-10-22T17:56:57.851Z,1007.07
2022-10-22T17:57:57.760Z,1007.05
2022-10-22T17:58:57.706Z,1007.11
2022-10-22T17:59:57.711Z,1007.09
2022-10-22T18:00:57.859Z,1007.09
2022-10-22T18:02:00.097Z,1007.09
2022-10-22T18:02:57.785Z,1007.13
2022-10-22T18:03:57.844Z,1007.13
2022-10-22T18:04:57.888Z,1007.16
2022-10-22T18:05:57.679Z,1007.18
2022-10-22T18:06:57.666Z,1007.13
2022-10-22T18:07:57.944Z,1007.17
2022-10-22T18:08:57.597Z,1007.16
2022-10-22T18:09:57.856Z,1007.20
2022-10-22T18:10:57.735Z,1007.18
2022-10-22T18:11:57.923Z,1007.24
2022-10-22T18:12:57.551Z,1007.21
2022-10-22T18:13:57.777Z,1007.26
2022-10-22T18:14:57.542Z,1007.27
2022-10-22T18:15:58.063Z,1007.26
2022-10-22T18:16:57.521Z,1007.29
2022-10-22T18:17:57.523Z,1007.30
2022-10-22T18:18:57.596Z,1007.30
2022-10-22T18:19:57.647Z,1007.36
2022-10-22T18:20:57.557Z,1007.39
2022-10-22T18:21:57.461Z,1007.40
2022-10-22T18:22:57.429Z,1007.38
2022-10-22T18:23:58.034Z,1007.38
2022-10-22T18:24:58.366Z,1007.36
2022-10-22T18:25:57.391Z,1007.36
2022-10-22T18:26:58.137Z,1007.33
2022-10-22T18:27:57.414Z,1007.36
2022-10-22T18:28:58.966Z,1007.39
2022-10-22T18:29:57.456Z,1007.39
2022-10-22T18:30:57.340Z,1007.41
2022-10-22T18:31:57.469Z,1007.37
2022-10-22T18:32:57.400Z,1007.36
2022-10-22T18:33:57.403Z,1007.35
2022-10-22T18:34:57.396Z,1007.38
2022-10-22T18:35:57.313Z,1007.40
2022-10-22T18:36:57.303Z,1007.39
2022-10-22T18:37:57.313Z,1007.41
2022-10-22T18:38:57.335Z,1007.41
2022-10-22T18:39:57.314Z,1007.41
2022-10-22T18:40:57.345Z,1007.43
2022-10-22T18:41:57.323Z,1007.42
2022-10-22T18:42:57.507Z,1007.39
2022-10-22T18:43:57.217Z,1007.36
2022-10-22T18:44:57.520Z,1007.38
2022-10-22T18:45:57.529Z,1007.43
2022-10-22T18:46:57.335Z,1007.41
2022-10-22T18:47:57.335Z,1007.43
2022-10-22T18:48:57.167Z,1007.46
2022-10-22T18:49:57.410Z,1007.48
2022-10-22T18:50:57.524Z,1007.49
2022-10-22T18:51:57.176Z,1007.50
2022-10-22T18:52:57.383Z,1007.51
2022-10-22T18:54:05.793Z,1007.48
2022-10-22T18:54:58.100Z,1007.53
2022-10-22T18:55:57.088Z,1007.54
2022-10-22T18:56:59.342Z,1007.49
2022-10-22T18:57:57.091Z,1007.47
2022-10-22T18:58:57.043Z,1007.48
2022-10-22T18:59:59.296Z,1007.49
2022-10-22T19:00:57.163Z,1007.48
2022-10-22T19:01:57.027Z,1007.46
2022-10-22T19:02:57.010Z,1007.47
2022-10-22T19:03:57.004Z,1007.48
2022-10-22T19:04:56.992Z,1007.46
2022-10-22T19:05:57.525Z,1007.41
2022-10-22T19:06:57.000Z,1007.46
2022-10-22T19:07:56.959Z,1007.47
2022-10-22T19:08:56.966Z,1007.46
2022-10-22T19:09:56.931Z,1007.49
2022-10-22T19:10:56.935Z,1007.41
2022-10-22T19:11:56.977Z,1007.43
2022-10-22T19:12:56.883Z,1007.45
2022-10-22T19:13:56.890Z,1007.45
2022-10-22T19:14:56.927Z,1007.44
2022-10-22T19:15:56.877Z,1007.45
2022-10-22T19:16:56.877Z,1007.46
2022-10-22T19:17:56.844Z,1007.45
2022-10-22T19:18:56.850Z,1007.40
2022-10-22T19:19:56.899Z,1007.41
2022-10-22T19:20:56.818Z,1007.38
2022-10-22T19:21:56.791Z,1007.40
2022-10-22T19:22:56.778Z,1007.38
2022-10-22T19:23:56.915Z,1007.39
2022-10-22T19:24:56.776Z,1007.37
2022-10-22T19:25:56.799Z,1007.42
2022-10-22T19:26:56.759Z,1007.38
2022-10-22T19:27:56.734Z,1007.40
2022-10-22T19:28:56.785Z,1007.41
2022-10-22T19:29:56.717Z,1007.41
2022-10-22T19:30:56.699Z,1007.44
2022-10-22T19:31:56.734Z,1007.46
2022-10-22T19:32:56.676Z,1007.45
2022-10-22T19:33:56.673Z,1007.49
2022-10-22T19:34:56.666Z,1007.48
2022-10-22T19:35:56.654Z,1007.50
2022-10-22T19:36:56.643Z,1007.48
2022-10-22T19:37:56.629Z,1007.54
2022-10-22T19:38:56.597Z,1007.53
2022-10-22T19:39:56.599Z,1007.57
2022-10-22T19:40:56.613Z,1007.60
2022-10-22T19:41:56.574Z,1007.63
2022-10-22T19:42:56.640Z,1007.60
2022-10-22T19:43:56.555Z,1007.69
2022-10-22T19:44:56.568Z,1007.69
2022-10-22T19:45:56.542Z,1007.72
2022-10-22T19:46:56.539Z,1007.70
2022-10-22T19:47:56.536Z,1007.70
2022-10-22T19:48:57.978Z,1007.70
2022-10-22T19:49:56.493Z,1007.64
2022-10-22T19:50:56.513Z,1007.64
2022-10-22T19:51:56.546Z,1007.67
2022-10-22T19:52:56.488Z,1007.64
2022-10-22T19:53:56.468Z,1007.69
2022-10-22T19:54:56.459Z,1007.65
2022-10-22T19:55:56.550Z,1007.65
2022-10-22T19:56:56.458Z,1007.67
2022-10-22T19:57:56.416Z,1007.64
2022-10-22T19:58:56.409Z,1007.63
2022-10-22T19:59:56.434Z,1007.62
2022-10-22T20:00:56.453Z,1007.64
2022-10-22T20:01:56.378Z,1007.58
2022-10-22T20:02:56.357Z,1007.61
2022-10-22T20:03:56.360Z,1007.56
2022-10-22T20:04:56.387Z,1007.55
2022-10-22T20:05:56.341Z,1007.55
2022-10-22T20:06:56.323Z,1007.57
2022-10-22T20:07:56.325Z,1007.55
2022-10-22T20:08:56.500Z,1007.55
2022-10-22T20:09:56.285Z,1007.60
2022-10-22T20:10:56.286Z,1007.63
2022-10-22T20:11:56.309Z,1007.60
2022-10-22T20:12:56.254Z,1007.58
2022-10-22T20:13:56.247Z,1007.54
2022-10-22T20:14:56.232Z,1007.57
2022-10-22T20:15:56.217Z,1007.59
2022-10-22T20:16:56.238Z,1007.62
2022-10-22T20:17:56.218Z,1007.59
2022-10-22T20:18:56.231Z,1007.60
2022-10-22T20:19:56.165Z,1007.60
2022-10-22T20:20:56.209Z,1007.61
2022-10-22T20:21:56.225Z,1007.62
2022-10-22T20:22:56.154Z,1007.60
2022-10-22T20:23:56.154Z,1007.57
2022-10-22T20:24:56.126Z,1007.61
2022-10-22T20:25:56.124Z,1007.66
2022-10-22T20:26:56.120Z,1007.68
2022-10-22T20:27:56.090Z,1007.72
2022-10-22T20:28:56.090Z,1007.69
2022-10-22T20:29:56.188Z,1007.65
2022-10-22T20:30:56.441Z,1007.61
2022-10-22T20:31:56.049Z,1007.62
2022-10-22T20:32:56.087Z,1007.56
2022-10-22T20:33:56.032Z,1007.60
2022-10-22T20:34:56.188Z,1007.60
2022-10-22T20:35:56.005Z,1007.65
2022-10-22T20:36:56.009Z,1007.66
2022-10-22T20:37:56.002Z,1007.70
2022-10-22T20:38:55.976Z,1007.71
2022-10-22T20:39:56.103Z,1007.71
2022-10-22T20:40:55.951Z,1007.70
2022-10-22T20:41:55.936Z,1007.72
2022-10-22T20:42:56.876Z,1007.70
2022-10-22T20:43:55.922Z,1007.68